createdAt,value
2022-10-15T00:02:04.207Z,13.99
2022-10-15T00:04:31.500Z,13.80
2022-10-15T00:06:58.290Z,13.83
2022-10-15T00:09:25.026Z,13.94
2022-10-15T00:11:52.210Z,13.98
2022-10-15T00:14:18.967Z,13.86
2022-10-15T00:16:45.725Z,13.79
2022-10-15T00:19:12.857Z,13.96
2022-10-15T00:21:39.891Z,13.85
2022-10-15T00:24:06.965Z,13.79
2022-10-15T00:26:33.925Z,13.71
2022-10-15T00:29:02.014Z,13.79
2022-10-15T00:31:29.367Z,13.72
2022-10-15T00:33:57.275Z,13.57
2022-10-15T00:36:25.499Z,13.55
2022-10-15T00:38:52.630Z,13.67
2022-10-15T00:41:23.357Z,13.67
2022-10-15T00:43:51.462Z,13.41
2022-10-15T00:46:18.232Z,13.58
2022-10-15T00:48:46.456Z,13.73
2022-10-15T00:51:13.492Z,13.60
2022-10-15T00:53:40.151Z,13.46
2022-10-15T00:56:07.566Z,13.55
2022-10-15T00:58:34.260Z,13.75
2022-10-15T01:01:01.539Z,13.87
2022-10-15T01:03:28.739Z,13.54
2022-10-15T01:05:56.039Z,13.84
2022-10-15T01:08:22.819Z,13.34
2022-10-15T01:11:00.584Z,13.49
2022-10-15T01:13:46.116Z,13.56
2022-10-15T01:16:16.091Z,13.70
2022-10-15T01:19:18.201Z,13.31
2022-10-15T01:21:48.097Z,13.63
2022-10-15T01:24:17.573Z,13.49
2022-10-15T01:26:44.572Z,13.74
2022-10-15T01:29:30.502Z,13.61
2022-10-15T01:32:00.396Z,13.40
2022-10-15T01:34:27.736Z,13.55
2022-10-15T01:37:12.571Z,13.71
2022-10-15T01:39:41.565Z,13.56
2022-10-15T01:42:31.785Z,13.43
2022-10-15T01:44:59.633Z,13.28
2022-10-15T01:47:31.247Z,13.53
2022-10-15T01:49:58.228Z,13.41
2022-10-15T01:52:27.367Z,13.27
2022-10-15T01:54:54.120Z,13.24
2022-10-15T01:57:21.513Z,13.34
2022-10-15T01:59:48.629Z,13.38
2022-10-15T02:02:15.391Z,13.35
2022-10-15T02:04:42.434Z,13.27
2022-10-15T02:07:28.059Z,13.37
2022-10-15T02:09:58.925Z,13.34
2022-10-15T02:12:32.302Z,12.92
2022-10-15T02:15:19.951Z,13.03
2022-10-15T02:17:54.593Z,13.09
2022-10-15T02:20:25.049Z,13.23
2022-10-15T02:23:02.783Z,13.03
2022-10-15T02:25:30.631Z,13.26
2022-10-15T02:27:59.026Z,13.33
2022-10-15T02:30:26.576Z,13.06
2022-10-15T02:32:54.556Z,13.24
2022-10-15T02:35:22.091Z,13.09
2022-10-15T02:37:49.733Z,12.98
2022-10-15T02:40:18.836Z,13.11
2022-10-15T02:42:46.806Z,12.99
2022-10-15T02:45:13.658Z,12.97
2022-10-15T02:47:40.759Z,13.11
2022-10-15T02:50:08.354Z,13.15
2022-10-15T02:52:35.066Z,12.80
2022-10-15T02:55:02.009Z,13.02
2022-10-15T02:57:30.391Z,13.15
2022-10-15T02:59:59.102Z,12.94
2022-10-15T03:02:26.564Z,12.91
2022-10-15T03:04:53.531Z,13.01
2022-10-15T03:07:21.853Z,13.02
2022-10-15T03:09:48.906Z,13.23
2022-10-15T03:12:15.973Z,12.68
2022-10-15T03:14:42.710Z,12.44
2022-10-15T03:17:10.240Z,12.79
2022-10-15T03:19:37.186Z,12.51
2022-10-15T03:22:04.931Z,12.83
2022-10-15T03:24:35.634Z,13.04
2022-10-15T03:27:02.924Z,12.82
2022-10-15T03:29:29.757Z,12.64
2022-10-15T03:31:58.014Z,12.83
2022-10-15T03:34:25.400Z,12.83
2022-10-15T03:36:52.236Z,12.56
2022-10-15T03:39:18.982Z,12.85
2022-10-15T03:41:46.499Z,12.63
2022-10-15T03:44:16.641Z,12.68
2022-10-15T03:46:44.184Z,12.83
2022-10-15T03:49:12.074Z,12.93
2022-10-15T03:51:39.302Z,12.85
2022-10-15T03:54:06.275Z,12.91
2022-10-15T03:56:36.359Z,12.89
2022-10-15T03:59:07.119Z,12.92
2022-10-15T04:01:34.546Z,12.86
2022-10-15T04:04:01.975Z,12.72
2022-10-15T04:06:29.572Z,12.77
2022-10-15T04:09:02.553Z,12.62
2022-10-15T04:11:29.802Z,12.38
2022-10-15T04:13:58.038Z,12.42
2022-10-15T04:16:25.541Z,12.63
2022-10-15T04:18:52.811Z,12.86
2022-10-15T04:21:19.858Z,12.79
2022-10-15T04:23:47.797Z,12.84
2022-10-15T04:26:16.539Z,12.70
2022-10-15T04:28:44.106Z,12.62
2022-10-15T04:31:10.851Z,12.68
2022-10-15T04:33:39.432Z,12.55
2022-10-15T04:36:07.509Z,12.62
2022-10-15T04:38:40.497Z,12.73
2022-10-15T04:41:09.541Z,12.67
2022-10-15T04:43:37.761Z,12.44
2022-10-15T04:46:05.840Z,12.53
2022-10-15T04:48:34.442Z,12.59
2022-10-15T04:51:10.525Z,12.39
2022-10-15T04:53:37.780Z,12.41
2022-10-15T04:56:05.595Z,12.28
2022-10-15T04:58:32.739Z,12.40
2022-10-15T05:01:04.290Z,12.31
2022-10-15T05:06:08.032Z,12.50
2022-10-15T05:08:36.447Z,12.52
2022-10-15T05:11:04.535Z,12.48
2022-10-15T05:13:34.003Z,12.57
2022-10-15T05:16:09.817Z,12.64
2022-10-15T05:18:36.759Z,12.52
2022-10-15T05:21:03.941Z,12.67
2022-10-15T05:23:31.056Z,12.55
2022-10-15T05:26:02.139Z,12.61
2022-10-15T05:28:29.656Z,12.62
2022-10-15T05:30:56.796Z,12.58
2022-10-15T05:33:23.521Z,12.76
2022-10-15T05:35:50.519Z,12.77
2022-10-15T05:38:17.963Z,12.48
2022-10-15T05:40:47.872Z,12.55
2022-10-15T05:43:15.284Z,12.14
2022-10-15T05:45:42.057Z,12.53
2022-10-15T05:48:08.791Z,12.71
2022-10-15T05:50:35.884Z,12.70
2022-10-15T05:53:02.744Z,12.60
2022-10-15T05:55:30.197Z,12.69
2022-10-15T05:58:00.563Z,12.71
2022-10-15T06:00:27.308Z,12.95
2022-10-15T06:05:26.207Z,12.79
2022-10-15T06:07:52.878Z,13.01
2022-10-15T06:10:19.863Z,13.15
2022-10-15T06:12:50.711Z,13.07
2022-10-15T06:15:17.976Z,13.01
2022-10-15T06:17:45.125Z,13.16
2022-10-15T06:20:12.348Z,12.92
2022-10-15T06:22:39.245Z,13.30
2022-10-15T06:25:06.989Z,13.45
2022-10-15T06:27:33.810Z,13.36
2022-10-15T06:30:00.524Z,13.66
2022-10-15T06:32:27.461Z,13.63
2022-10-15T06:34:54.115Z,13.76
2022-10-15T06:37:21.012Z,13.94
2022-10-15T06:39:48.445Z,14.06
2022-10-15T06:42:15.409Z,14.16
2022-10-15T06:44:42.310Z,14.34
2022-10-15T06:47:09.948Z,14.52
2022-10-15T06:49:36.585Z,14.72
2022-10-15T06:52:03.781Z,14.91
2022-10-15T06:54:30.974Z,15.10
2022-10-15T06:56:57.770Z,15.19
2022-10-15T06:59:24.562Z,15.44
2022-10-15T07:01:51.805Z,15.63
2022-10-15T07:04:18.886Z,15.78
2022-10-15T07:06:45.734Z,16.20
2022-10-15T07:09:12.847Z,16.59
2022-10-15T07:11:39.565Z,16.87
2022-10-15T07:14:08.390Z,17.05
2022-10-15T07:16:36.154Z,17.35
2022-10-15T07:19:03.217Z,17.58
2022-10-15T07:21:29.969Z,17.90
2022-10-15T07:23:56.928Z,18.18
2022-10-15T07:26:23.847Z,18.40
2022-10-15T07:28:51.066Z,18.52
2022-10-15T07:31:17.986Z,18.71
2022-10-15T07:33:46.298Z,18.98
2022-10-15T07:36:13.547Z,19.13
2022-10-15T07:38:41.880Z,19.19
2022-10-15T07:41:09.412Z,19.28
2022-10-15T07:43:39.946Z,19.48
2022-10-15T07:46:06.893Z,19.65
2022-10-15T07:48:33.565Z,19.58
2022-10-15T07:51:01.363Z,19.47
2022-10-15T07:53:28.300Z,19.62
2022-10-15T07:56:02.619Z,19.87
2022-10-15T07:58:34.565Z,19.97
2022-10-15T08:01:04.842Z,20.17
2022-10-15T08:03:31.775Z,20.28
2022-10-15T08:06:02.076Z,20.07
2022-10-15T08:08:28.996Z,20.14
2022-10-15T08:10:56.367Z,20.53
2022-10-15T08:13:23.294Z,20.52
2022-10-15T08:15:50.462Z,20.43
2022-10-15T08:18:17.623Z,20.49
2022-10-15T08:20:44.361Z,20.62
2022-10-15T08:23:17.259Z,20.55
2022-10-15T08:25:44.323Z,20.69
2022-10-15T08:28:12.124Z,20.50
2022-10-15T08:30:38.831Z,20.60
2022-10-15T08:33:08.806Z,20.85
2022-10-15T08:35:40.322Z,21.11
2022-10-15T08:38:07.247Z,20.59
2022-10-15T08:40:34.827Z,20.96
2022-10-15T08:43:01.717Z,20.97
2022-10-15T08:45:30.517Z,20.61
2022-10-15T08:48:09.274Z,20.83
2022-10-15T08:50:36.754Z,20.77
2022-10-15T08:53:03.772Z,20.85
2022-10-15T08:55:35.607Z,21.21
2022-10-15T08:58:02.557Z,21.14
2022-10-15T09:00:40.478Z,21.02
2022-10-15T09:03:10.291Z,20.84
2022-10-15T09:05:49.122Z,20.72
2022-10-15T09:08:32.563Z,20.81
2022-10-15T09:11:14.148Z,21.13
2022-10-15T09:13:42.320Z,21.01
2022-10-15T09:16:15.097Z,21.07
2022-10-15T09:18:42.632Z,21.00
2022-10-15T09:21:09.387Z,20.91
2022-10-15T09:23:36.070Z,20.75
2022-10-15T09:26:12.089Z,20.04
2022-10-15T09:28:54.349Z,20.54
2022-10-15T09:31:21.949Z,20.33
2022-10-15T09:33:57.491Z,20.92
2022-10-15T09:36:35.650Z,20.50
2022-10-15T09:39:02.424Z,20.35
2022-10-15T09:41:35.633Z,20.46
2022-10-15T09:44:04.528Z,21.09
2022-10-15T09:46:44.896Z,20.97
2022-10-15T09:49:18.880Z,21.37
2022-10-15T09:51:54.606Z,21.39
2022-10-15T09:54:27.462Z,21.46
2022-10-15T09:56:54.882Z,21.13
2022-10-15T09:59:21.975Z,21.39
2022-10-15T10:02:07.485Z,21.47
2022-10-15T10:04:34.966Z,21.72
2022-10-15T10:07:02.229Z,21.54
2022-10-15T10:09:33.235Z,21.13
2022-10-15T10:12:02.482Z,21.07
2022-10-15T10:14:33.824Z,21.08
2022-10-15T10:17:20.494Z,21.02
2022-10-15T10:20:02.701Z,21.35
2022-10-15T10:22:29.608Z,21.10
2022-10-15T10:24:56.313Z,21.26
2022-10-15T10:27:28.312Z,21.28
2022-10-15T10:29:59.874Z,20.92
2022-10-15T10:32:33.005Z,20.96
2022-10-15T10:35:00.213Z,21.15
2022-10-15T10:37:27.399Z,21.35
2022-10-15T10:39:55.166Z,21.50
2022-10-15T10:42:22.149Z,21.49
2022-10-15T10:44:48.834Z,21.31
2022-10-15T10:47:23.196Z,20.94
2022-10-15T10:49:57.608Z,21.35
2022-10-15T10:52:30.644Z,21.36
2022-10-15T10:55:00.715Z,21.56
2022-10-15T10:57:44.091Z,21.14
2022-10-15T11:00:19.443Z,21.00
2022-10-15T11:02:48.245Z,21.26
2022-10-15T11:05:15.840Z,21.19
2022-10-15T11:07:48.708Z,20.72
2022-10-15T11:10:23.471Z,21.02
2022-10-15T11:12:59.177Z,21.19
2022-10-15T11:15:44.792Z,21.41
2022-10-15T11:18:31.772Z,21.11
2022-10-15T11:21:06.052Z,20.96
2022-10-15T11:23:33.803Z,21.24
2022-10-15T11:26:06.746Z,21.01
2022-10-15T11:28:51.852Z,21.30
2022-10-15T11:31:48.983Z,21.17
2022-10-15T11:34:28.386Z,20.87
2022-10-15T11:37:14.377Z,20.72
2022-10-15T11:39:47.231Z,20.99
2022-10-15T11:42:18.180Z,20.98
2022-10-15T11:44:45.037Z,20.94
2022-10-15T11:47:26.383Z,21.10
2022-10-15T11:50:05.376Z,20.52
2022-10-15T11:52:45.031Z,20.62
2022-10-15T11:55:20.334Z,21.20
2022-10-15T11:57:47.627Z,21.16
2022-10-15T12:00:14.625Z,21.20
2022-10-15T12:02:43.616Z,21.25
2022-10-15T12:05:11.910Z,20.99
2022-10-15T12:07:42.663Z,21.20
2022-10-15T12:10:14.076Z,21.21
2022-10-15T12:12:56.015Z,20.83
2022-10-15T12:15:32.256Z,21.12
2022-10-15T12:18:11.018Z,21.07
2022-10-15T12:20:39.014Z,21.52
2022-10-15T12:23:06.310Z,21.31
2022-10-15T12:25:36.188Z,21.31
2022-10-15T12:28:13.384Z,21.23
2022-10-15T12:30:40.534Z,21.27
2022-10-15T12:33:23.836Z,21.01
2022-10-15T12:36:01.050Z,21.17
2022-10-15T12:38:40.119Z,21.25
2022-10-15T12:41:08.304Z,21.27
2022-10-15T12:43:38.078Z,21.01
2022-10-15T12:46:05.730Z,20.93
2022-10-15T12:48:37.711Z,21.29
2022-10-15T12:56:48.972Z,20.72
2022-10-15T12:59:28.324Z,21.03
2022-10-15T13:01:56.262Z,20.96
2022-10-15T13:04:23.581Z,21.33
2022-10-15T13:06:50.657Z,21.35
2022-10-15T13:09:22.661Z,21.06
2022-10-15T13:14:26.461Z,20.95
2022-10-15T13:16:56.066Z,21.13
2022-10-15T13:19:34.924Z,21.21
2022-10-15T13:22:02.622Z,21.30
2022-10-15T13:24:40.452Z,21.18
2022-10-15T13:27:33.708Z,21.06
2022-10-15T13:30:23.922Z,21.17
2022-10-15T13:32:52.780Z,20.74
2022-10-15T13:35:23.941Z,21.18
2022-10-15T13:37:50.619Z,21.29
2022-10-15T13:40:19.094Z,21.26
2022-10-15T13:43:01.813Z,21.02
2022-10-15T13:45:29.514Z,21.28
2022-10-15T13:47:56.546Z,21.31
2022-10-15T13:50:23.791Z,21.41
2022-10-15T13:52:50.734Z,21.34
2022-10-15T13:55:22.196Z,21.24
2022-10-15T13:57:49.150Z,21.19
2022-10-15T14:00:23.101Z,21.34
2022-10-15T14:03:08.522Z,21.45
2022-10-15T14:05:35.345Z,21.17
2022-10-15T14:08:02.316Z,21.17
2022-10-15T14:10:29.065Z,21.13
2022-10-15T14:12:56.166Z,21.27
2022-10-15T14:15:41.889Z,21.21
2022-10-15T14:18:08.613Z,21.23
2022-10-15T14:20:35.536Z,21.17
2022-10-15T14:23:02.510Z,21.23
2022-10-15T14:25:29.199Z,21.28
2022-10-15T14:27:56.160Z,21.08
2022-10-15T14:30:28.326Z,21.13
2022-10-15T14:32:55.101Z,21.18
2022-10-15T14:35:40.305Z,21.15
2022-10-15T14:38:09.984Z,21.20
2022-10-15T14:40:36.931Z,21.21
2022-10-15T14:43:03.809Z,21.30
2022-10-15T14:45:31.958Z,21.09
2022-10-15T14:48:00.194Z,21.07
2022-10-15T14:50:28.913Z,20.81
2022-10-15T14:52:56.251Z,21.01
2022-10-15T14:55:23.195Z,21.12
2022-10-15T14:57:50.141Z,20.97
2022-10-15T15:00:27.006Z,20.89
2022-10-15T15:02:57.924Z,21.00
2022-10-15T15:05:25.482Z,20.92
2022-10-15T15:07:52.463Z,20.98
2022-10-15T15:10:19.763Z,20.73
2022-10-15T15:12:48.817Z,20.97
2022-10-15T15:15:16.185Z,20.78
2022-10-15T15:17:43.456Z,20.77
2022-10-15T15:20:11.429Z,20.84
2022-10-15T15:22:38.187Z,20.75
2022-10-15T15:25:44.109Z,20.64
2022-10-15T15:28:14.530Z,20.66
2022-10-15T15:30:44.539Z,20.60
2022-10-15T15:33:12.401Z,20.68
2022-10-15T15:35:40.669Z,20.55
2022-10-15T15:38:08.638Z,20.62
2022-10-15T15:40:35.412Z,20.56
2022-10-15T15:43:02.098Z,20.43
2022-10-15T15:45:29.907Z,20.59
2022-10-15T15:48:09.744Z,20.59
2022-10-15T15:50:37.024Z,20.46
2022-10-15T15:53:03.980Z,20.49
2022-10-15T15:55:30.745Z,20.38
2022-10-15T15:57:57.690Z,20.41
2022-10-15T16:00:24.376Z,20.47
2022-10-15T16:02:54.104Z,20.50
2022-10-15T16:05:24.544Z,20.46
2022-10-15T16:07:51.543Z,20.61
2022-10-15T16:10:19.216Z,20.56
2022-10-15T16:12:45.869Z,20.54
2022-10-15T16:15:14.819Z,20.42
2022-10-15T16:17:42.807Z,20.43
2022-10-15T16:20:09.997Z,20.47
2022-10-15T16:22:37.064Z,20.40
2022-10-15T16:25:03.814Z,20.47
2022-10-15T16:27:30.487Z,20.35
2022-10-15T16:29:57.563Z,20.17
2022-10-15T16:32:24.228Z,20.33
2022-10-15T16:34:51.329Z,20.28
2022-10-15T16:37:18.383Z,20.21
2022-10-15T16:39:45.207Z,20.28
2022-10-15T16:42:13.708Z,20.24
2022-10-15T16:44:40.803Z,20.18
2022-10-15T16:47:09.142Z,20.18
2022-10-15T16:49:35.889Z,20.14
2022-10-15T16:52:03.478Z,20.09
2022-10-15T16:54:30.253Z,20.06
2022-10-15T16:56:56.963Z,20.10
2022-10-15T16:59:24.331Z,20.04
2022-10-15T17:01:52.387Z,20.10
2022-10-15T17:04:19.278Z,20.04
2022-10-15T17:06:46.569Z,20.00
2022-10-15T17:09:13.605Z,20.03
2022-10-15T17:11:41.495Z,20.07
2022-10-15T17:14:10.068Z,20.02
2022-10-15T17:16:41.535Z,19.99
2022-10-15T17:19:08.977Z,19.87
2022-10-15T17:21:36.039Z,19.82
2022-10-15T17:24:04.039Z,19.92
2022-10-15T17:26:41.508Z,19.91
2022-10-15T17:29:10.261Z,19.96
2022-10-15T17:31:38.295Z,19.82
2022-10-15T17:34:06.325Z,19.78
2022-10-15T17:36:36.071Z,19.76
2022-10-15T17:39:03.868Z,19.72
2022-10-15T17:41:30.753Z,19.67
2022-10-15T17:43:58.269Z,19.77
2022-10-15T17:46:26.528Z,19.55
2022-10-15T17:48:53.953Z,19.62
2022-10-15T17:51:22.068Z,19.66
2022-10-15T17:53:54.911Z,19.66
2022-10-15T17:56:21.858Z,19.77
2022-10-15T17:58:50.225Z,19.68
2022-10-15T18:01:33.840Z,19.68
2022-10-15T18:04:12.858Z,19.59
2022-10-15T18:06:42.814Z,19.62
2022-10-15T18:09:12.574Z,19.69
2022-10-15T18:11:40.165Z,19.71
2022-10-15T18:14:07.184Z,19.62
2022-10-15T18:16:34.327Z,19.71
2022-10-15T18:19:01.518Z,19.71
2022-10-15T18:21:29.420Z,19.45
2022-10-15T18:23:57.609Z,19.40
2022-10-15T18:26:25.041Z,19.40
2022-10-15T18:28:53.528Z,19.45
2022-10-15T18:31:24.303Z,19.34
2022-10-15T18:33:52.335Z,19.50
2022-10-15T18:36:21.166Z,19.47
2022-10-15T18:38:48.446Z,19.43
2022-10-15T18:41:17.011Z,19.43
2022-10-15T18:43:44.135Z,19.42
2022-10-15T18:46:11.015Z,19.38
2022-10-15T18:48:38.600Z,19.27
2022-10-15T18:51:06.429Z,19.45
2022-10-15T18:53:34.260Z,19.39
2022-10-15T18:56:02.298Z,19.44
2022-10-15T18:58:30.001Z,19.35
2022-10-15T19:00:58.149Z,19.33
2022-10-15T19:03:25.790Z,19.09
2022-10-15T19:05:52.950Z,19.22
2022-10-15T19:08:21.457Z,19.16
2022-10-15T19:10:48.839Z,19.20
2022-10-15T19:13:15.943Z,19.22
2022-10-15T19:15:43.689Z,19.17
2022-10-15T19:18:11.901Z,19.26
2022-10-15T19:20:41.940Z,19.04
2022-10-15T19:23:09.808Z,18.95
2022-10-15T19:25:46.579Z,19.02
2022-10-15T19:28:15.528Z,19.16
2022-10-15T19:30:55.137Z,19.09
2022-10-15T19:33:23.354Z,19.10
2022-10-15T19:35:53.643Z,18.98
2022-10-15T19:38:21.372Z,18.96
2022-10-15T19:40:50.392Z,19.10
2022-10-15T19:43:18.697Z,18.97
2022-10-15T19:45:46.213Z,19.02
2022-10-15T19:48:15.560Z,18.93
2022-10-15T19:50:43.960Z,18.90
2022-10-15T19:53:11.789Z,18.98
2022-10-15T19:55:39.270Z,18.96
2022-10-15T19:58:06.953Z,18.77
2022-10-15T20:00:35.218Z,19.00
2022-10-15T20:03:03.063Z,18.88
2022-10-15T20:05:31.560Z,18.83
2022-10-15T20:08:00.465Z,18.98
2022-10-15T20:10:32.036Z,19.10
2022-10-15T20:13:09.993Z,18.96
2022-10-15T20:16:19.654Z,18.99
2022-10-15T20:18:51.613Z,18.91
2022-10-15T20:21:19.741Z,19.00
2022-10-15T20:23:51.181Z,18.90
2022-10-15T20:26:19.196Z,18.81
2022-10-15T20:28:47.303Z,18.98
2022-10-15T20:31:17.265Z,18.38
2022-10-15T20:33:45.568Z,18.83
2022-10-15T20:36:14.815Z,18.91
2022-10-15T20:38:42.693Z,18.77
2022-10-15T20:41:10.644Z,18.87
2022-10-15T20:43:37.554Z,18.86
2022-10-15T20:46:05.671Z,18.69
2022-10-15T20:48:32.675Z,18.32
2022-10-15T20:50:59.393Z,18.55
2022-10-15T20:53:26.327Z,18.78
2022-10-15T20:55:53.731Z,18.83
2022-10-15T20:58:21.446Z,18.61
2022-10-15T21:00:48.516Z,18.98
2022-10-15T21:03:15.673Z,18.53
2022-10-15T21:05:42.336Z,18.39
2022-10-15T21:08:09.126Z,18.76
2022-10-15T21:10:36.248Z,18.72
2022-10-15T21:13:03.015Z,18.81
2022-10-15T21:15:30.702Z,18.84
2022-10-15T21:17:58.412Z,18.99
2022-10-15T21:20:25.397Z,18.83
2022-10-15T21:22:52.088Z,18.76
2022-10-15T21:25:19.230Z,19.09
2022-10-15T21:27:46.075Z,19.05
2022-10-15T21:30:12.851Z,19.04
2022-10-15T21:32:39.913Z,19.13
2022-10-15T21:35:06.874Z,19.12
2022-10-15T21:37:34.421Z,18.84
2022-10-15T21:40:01.643Z,18.80
2022-10-15T21:42:30.184Z,18.67
2022-10-15T21:44:58.050Z,19.00
2022-10-15T21:47:25.607Z,19.01
2022-10-15T21:49:52.583Z,19.14
2022-10-15T21:52:19.291Z,19.16
2022-10-15T21:54:46.620Z,19.17
2022-10-15T21:57:13.433Z,19.16
2022-10-15T21:59:40.188Z,19.12
2022-10-15T22:02:07.300Z,18.94
2022-10-15T22:04:34.993Z,18.92
2022-10-15T22:07:01.859Z,18.92
2022-10-15T22:09:28.691Z,19.19
2022-10-15T22:11:55.622Z,19.34
2022-10-15T22:14:22.326Z,19.29
2022-10-15T22:16:49.091Z,19.20
2022-10-15T22:19:16.598Z,19.16
2022-10-15T22:21:43.359Z,19.29
2022-10-15T22:24:12.920Z,19.34
2022-10-15T22:26:40.840Z,19.25
2022-10-15T22:29:08.049Z,19.34
2022-10-15T22:31:34.976Z,19.28
2022-10-15T22:34:01.964Z,19.28
2022-10-15T22:36:29.862Z,19.26
2022-10-15T22:39:03.669Z,18.76
2022-10-15T22:41:31.237Z,19.02
2022-10-15T22:43:59.506Z,19.08
2022-10-15T22:46:26.315Z,19.17
2022-10-15T22:48:53.752Z,19.08
2022-10-15T22:51:21.162Z,19.08
2022-10-15T22:53:48.162Z,19.09
2022-10-15T22:56:18.728Z,19.17
2022-10-15T22:58:45.718Z,19.17
2022-10-15T23:01:12.487Z,19.10
2022-10-15T23:03:40.274Z,19.13
2022-10-15T23:06:07.211Z,19.08
2022-10-15T23:08:34.057Z,19.11
2022-10-15T23:11:09.449Z,19.03
2022-10-15T23:13:36.797Z,19.07
2022-10-15T23:16:07.425Z,19.18
2022-10-15T23:18:34.575Z,19.03
2022-10-15T23:21:10.819Z,19.04
2022-10-15T23:23:37.887Z,19.14
2022-10-15T23:26:04.597Z,19.03
2022-10-15T23:28:31.489Z,18.94
2022-10-15T23:30:58.576Z,18.97
2022-10-15T23:33:25.379Z,18.94
2022-10-15T23:36:02.332Z,18.82
2022-10-15T23:38:29.343Z,19.00
2022-10-15T23:41:00.310Z,19.07
2022-10-15T23:43:27.067Z,18.93
2022-10-15T23:45:54.136Z,19.04
2022-10-15T23:48:20.835Z,18.89
2022-10-15T23:50:47.487Z,18.90
2022-10-15T23:53:14.500Z,18.93
2022-10-15T23:55:41.307Z,18.87
2022-10-15T23:58:08.267Z,18.87
